sensor_id;sensor_type;location;lat;lon;timestamp;P1;durP1;ratioP1;P2;durP2;ratioP2
75516;SDS011;64097;52.548;13.406;2023-01-29T06:01:54;21.10;;;16.23;;
75516;SDS011;64097;52.548;13.406;2023-01-29T06:04:20;21.40;;;16.67;;
75516;SDS011;64097;52.548;13.406;2023-01-29T06:06:45;21.02;;;16.75;;
75516;SDS011;64097;52.548;13.406;2023-01-29T06:09:11;20.92;;;16.13;;
75516;SDS011;64097;52.548;13.406;2023-01-29T06:11:37;23.08;;;18.65;;
75516;SDS011;64097;52.548;13.406;2023-01-29T06:14:03;23.40;;;16.77;;
75516;SDS011;64097;52.548;13.406;2023-01-29T06:16:29;21.10;;;16.50;;
75516;SDS011;64097;52.548;13.406;2023-01-29T06:18:54;21.52;;;16.23;;
75516;SDS011;64097;52.548;13.406;2023-01-29T06:21:20;21.88;;;16.73;;
75516;SDS011;64097;52.548;13.406;2023-01-29T06:23:46;22.58;;;17.33;;
75516;SDS011;64097;52.548;13.406;2023-01-29T06:26:12;22.63;;;16.50;;
75516;SDS011;64097;52.548;13.406;2023-01-29T06:28:39;23.00;;;17.30;;
75516;SDS011;64097;52.548;13.406;2023-01-29T06:31:05;23.88;;;17.55;;
75516;SDS011;64097;52.548;13.406;2023-01-29T06:33:31;23.52;;;18.23;;
75516;SDS011;64097;52.548;13.406;2023-01-29T06:36:01;23.60;;;18.10;;
75516;SDS011;64097;52.548;13.406;2023-01-29T06:38:28;22.13;;;17.90;;
75516;SDS011;64097;52.548;13.406;2023-01-29T06:40:54;22.55;;;16.88;;
75516;SDS011;64097;52.548;13.406;2023-01-29T06:43:20;19.75;;;15.90;;
75516;SDS011;64097;52.548;13.406;2023-01-29T06:45:56;20.48;;;15.68;;
75516;SDS011;64097;52.548;13.406;2023-01-29T06:48:22;18.77;;;15.05;;
75516;SDS011;64097;52.548;13.406;2023-01-29T06:50:49;19.77;;;15.32;;
75516;SDS011;64097;52.548;13.406;2023-01-29T06:53:15;19.38;;;15.77;;
75516;SDS011;64097;52.548;13.406;2023-01-29T06:55:42;17.95;;;14.73;;
75516;SDS011;64097;52.548;13.406;2023-01-29T06:58:09;21.75;;;16.45;;
75516;SDS011;64097;52.548;13.406;2023-01-29T07:00:36;20.08;;;15.57;;
75516;SDS011;64097;52.548;13.406;2023-01-29T07:03:02;19.40;;;15.52;;
75516;SDS011;64097;52.548;13.406;2023-01-29T07:05:28;17.48;;;14.70;;
75516;SDS011;64097;52.548;13.406;2023-01-29T07:07:54;18.80;;;15.10;;
75516;SDS011;64097;52.548;13.406;2023-01-29T07:10:20;19.45;;;15.63;;
75516;SDS011;64097;52.548;13.406;2023-01-29T07:12:46;18.25;;;14.90;;
75516;SDS011;64097;52.548;13.406;2023-01-29T07:15:11;20.80;;;17.50;;
75516;SDS011;64097;52.548;13.406;2023-01-29T07:17:38;18.65;;;14.60;;
75516;SDS011;64097;52.548;13.406;2023-01-29T07:20:05;19.60;;;15.70;;
75516;SDS011;64097;52.548;13.406;2023-01-29T07:22:32;20.10;;;15.77;;
75516;SDS011;64097;52.548;13.406;2023-01-29T07:24:57;18.65;;;14.63;;
75516;SDS011;64097;52.548;13.406;2023-01-29T07:27:23;18.92;;;15.00;;
75516;SDS011;64097;52.548;13.406;2023-01-29T07:29:49;18.08;;;13.77;;
75516;SDS011;64097;52.548;13.406;2023-01-29T07:32:14;19.27;;;16.20;;
75516;SDS011;64097;52.548;13.406;2023-01-29T07:34:40;18.83;;;15.10;;
75516;SDS011;64097;52.548;13.406;2023-01-29T07:37:06;19.83;;;14.85;;
75516;SDS011;64097;52.548;13.406;2023-01-29T07:39:32;21.48;;;15.82;;
75516;SDS011;64097;52.548;13.406;2023-01-29T07:41:57;20.45;;;15.95;;
75516;SDS011;64097;52.548;13.406;2023-01-29T07:44:23;18.40;;;14.75;;
75516;SDS011;64097;52.548;13.406;2023-01-29T07:46:49;20.55;;;15.80;;
75516;SDS011;64097;52.548;13.406;2023-01-29T07:49:14;21.23;;;16.52;;
75516;SDS011;64097;52.548;13.406;2023-01-29T07:51:40;19.23;;;15.73;;
75516;SDS011;64097;52.548;13.406;2023-01-29T07:54:06;19.08;;;14.70;;
75516;SDS011;64097;52.548;13.406;2023-01-29T07:56:32;20.88;;;17.02;;
75516;SDS011;64097;52.548;13.406;2023-01-29T07:58:57;20.80;;;15.23;;
75516;SDS011;64097;52.548;13.406;2023-01-29T08:01:23;19.30;;;14.75;;
75516;SDS011;64097;52.548;13.406;2023-01-29T08:03:49;22.23;;;16.52;;
75516;SDS011;64097;52.548;13.406;2023-01-29T08:06:14;18.80;;;15.43;;
75516;SDS011;64097;52.548;13.406;2023-01-29T08:08:40;19.30;;;15.50;;
75516;SDS011;64097;52.548;13.406;2023-01-29T08:11:06;18.08;;;14.40;;
75516;SDS011;64097;52.548;13.406;2023-01-29T08:13:32;18.33;;;13.70;;
75516;SDS011;64097;52.548;13.406;2023-01-29T08:16:01;18.85;;;14.98;;
75516;SDS011;64097;52.548;13.406;2023-01-29T08:18:28;19.58;;;16.02;;
75516;SDS011;64097;52.548;13.406;2023-01-29T08:21:00;23.45;;;18.75;;
75516;SDS011;64097;52.548;13.406;2023-01-29T08:23:27;18.88;;;15.10;;
75516;SDS011;64097;52.548;13.406;2023-01-29T08:25:53;17.30;;;13.93;;
75516;SDS011;64097;52.548;13.406;2023-01-29T08:28:19;19.48;;;15.45;;
75516;SDS011;64097;52.548;13.406;2023-01-29T08:30:44;20.95;;;15.90;;
75516;SDS011;64097;52.548;13.406;2023-01-29T08:33:10;20.02;;;15.68;;
75516;SDS011;64097;52.548;13.406;2023-01-29T08:35:36;19.48;;;15.15;;
75516;SDS011;64097;52.548;13.406;2023-01-29T08:38:03;20.80;;;16.27;;
75516;SDS011;64097;52.548;13.406;2023-01-29T08:40:30;21.60;;;16.23;;
75516;SDS011;64097;52.548;13.406;2023-01-29T08:43:02;21.90;;;17.08;;
75516;SDS011;64097;52.548;13.406;2023-01-29T08:45:33;20.88;;;15.90;;
75516;SDS011;64097;52.548;13.406;2023-01-29T08:48:00;22.00;;;17.38;;
75516;SDS011;64097;52.548;13.406;2023-01-29T08:50:26;22.38;;;16.70;;
75516;SDS011;64097;52.548;13.406;2023-01-29T08:52:56;19.75;;;15.32;;
75516;SDS011;64097;52.548;13.406;2023-01-29T08:55:23;18.70;;;14.90;;
75516;SDS011;64097;52.548;13.406;2023-01-29T08:57:49;21.00;;;15.38;;
75516;SDS011;64097;52.548;13.406;2023-01-29T09:00:15;20.38;;;15.95;;
75516;SDS011;64097;52.548;13.406;2023-01-29T09:02:41;20.35;;;16.33;;
75516;SDS011;64097;52.548;13.406;2023-01-29T09:05:08;21.10;;;16.30;;
75516;SDS011;64097;52.548;13.406;2023-01-29T09:07:34;18.48;;;14.15;;
75516;SDS011;64097;52.548;13.406;2023-01-29T09:10:00;20.33;;;15.15;;
75516;SDS011;64097;52.548;13.406;2023-01-29T09:12:26;22.70;;;16.92;;
75516;SDS011;64097;52.548;13.406;2023-01-29T09:14:51;22.33;;;16.63;;
75516;SDS011;64097;52.548;13.406;2023-01-29T09:17:17;20.70;;;16.48;;
75516;SDS011;64097;52.548;13.406;2023-01-29T09:19:43;21.65;;;17.00;;
75516;SDS011;64097;52.548;13.406;2023-01-29T09:22:09;22.08;;;17.45;;
75516;SDS011;64097;52.548;13.406;2023-01-29T09:24:34;18.65;;;15.00;;
75516;SDS011;64097;52.548;13.406;2023-01-29T09:27:00;21.75;;;17.00;;
75516;SDS011;64097;52.548;13.406;2023-01-29T09:29:26;22.80;;;17.10;;
75516;SDS011;64097;52.548;13.406;2023-01-29T09:31:52;20.35;;;15.95;;
75516;SDS011;64097;52.548;13.406;2023-01-29T09:34:17;20.02;;;15.73;;
75516;SDS011;64097;52.548;13.406;2023-01-29T09:36:43;21.63;;;17.42;;
75516;SDS011;64097;52.548;13.406;2023-01-29T09:39:09;23.13;;;17.58;;
75516;SDS011;64097;52.548;13.406;2023-01-29T09:41:44;19.75;;;15.40;;
75516;SDS011;64097;52.548;13.406;2023-01-29T09:47:27;20.45;;;16.27;;
75516;SDS011;64097;52.548;13.406;2023-01-29T09:52:29;18.50;;;15.07;;
75516;SDS011;64097;52.548;13.406;2023-01-29T09:55:09;19.42;;;15.25;;
75516;SDS011;64097;52.548;13.406;2023-01-29T10:00:30;20.20;;;15.30;;
75516;SDS011;64097;52.548;13.406;2023-01-29T10:03:11;19.42;;;14.90;;
75516;SDS011;64097;52.548;13.406;2023-01-29T10:25:26;16.33;;;13.43;;
75516;SDS011;64097;52.548;13.406;2023-01-29T10:27:52;17.42;;;13.77;;
75516;SDS011;64097;52.548;13.406;2023-01-29T10:32:53;19.00;;;14.95;;
75516;SDS011;64097;52.548;13.406;2023-01-29T10:35:22;18.23;;;14.52;;
75516;SDS011;64097;52.548;13.406;2023-01-29T10:37:53;16.25;;;13.57;;
75516;SDS011;64097;52.548;13.406;2023-01-29T10:40:32;19.63;;;15.52;;
75516;SDS011;64097;52.548;13.406;2023-01-29T10:43:05;19.77;;;15.65;;
75516;SDS011;64097;52.548;13.406;2023-01-29T10:48:47;21.02;;;15.80;;
75516;SDS011;64097;52.548;13.406;2023-01-29T11:02:15;16.92;;;13.57;;
75516;SDS011;64097;52.548;13.406;2023-01-29T11:04:43;19.17;;;14.00;;
75516;SDS011;64097;52.548;13.406;2023-01-29T11:07:10;17.70;;;14.02;;
75516;SDS011;64097;52.548;13.406;2023-01-29T11:12:15;19.10;;;14.90;;
75516;SDS011;64097;52.548;13.406;2023-01-29T11:14:49;17.52;;;13.50;;
75516;SDS011;64097;52.548;13.406;2023-01-29T11:17:19;21.70;;;15.25;;
75516;SDS011;64097;52.548;13.406;2023-01-29T11:19:47;21.50;;;15.38;;
75516;SDS011;64097;52.548;13.406;2023-01-29T11:22:16;18.95;;;15.25;;
75516;SDS011;64097;52.548;13.406;2023-01-29T11:27:41;17.05;;;13.40;;
75516;SDS011;64097;52.548;13.406;2023-01-29T11:30:13;14.93;;;12.18;;
75516;SDS011;64097;52.548;13.406;2023-01-29T11:32:59;13.85;;;11.43;;
75516;SDS011;64097;52.548;13.406;2023-01-29T11:35:33;16.05;;;13.07;;
75516;SDS011;64097;52.548;13.406;2023-01-29T11:38:33;16.77;;;13.30;;
75516;SDS011;64097;52.548;13.406;2023-01-29T11:41:03;14.82;;;12.13;;
75516;SDS011;64097;52.548;13.406;2023-01-29T11:43:31;13.88;;;11.68;;
75516;SDS011;64097;52.548;13.406;2023-01-29T11:46:01;15.02;;;12.05;;
75516;SDS011;64097;52.548;13.406;2023-01-29T11:48:34;16.27;;;12.10;;
75516;SDS011;64097;52.548;13.406;2023-01-29T11:51:09;13.98;;;11.95;;
75516;SDS011;64097;52.548;13.406;2023-01-29T11:53:39;16.25;;;12.15;;
75516;SDS011;64097;52.548;13.406;2023-01-29T11:56:21;13.30;;;10.75;;
75516;SDS011;64097;52.548;13.406;2023-01-29T11:58:50;15.00;;;11.73;;
75516;SDS011;64097;52.548;13.406;2023-01-29T12:01:26;16.23;;;12.30;;
75516;SDS011;64097;52.548;13.406;2023-01-29T12:04:01;14.30;;;11.98;;
75516;SDS011;64097;52.548;13.406;2023-01-29T12:06:40;13.57;;;11.57;;
75516;SDS011;64097;52.548;13.406;2023-01-29T12:09:09;13.68;;;11.38;;
75516;SDS011;64097;52.548;13.406;2023-01-29T12:11:39;14.38;;;11.77;;
75516;SDS011;64097;52.548;13.406;2023-01-29T12:14:26;13.10;;;11.70;;
75516;SDS011;64097;52.548;13.406;2023-01-29T12:27:25;13.00;;;10.95;;
75516;SDS011;64097;52.548;13.406;2023-01-29T12:30:03;12.20;;;10.00;;
75516;SDS011;64097;52.548;13.406;2023-01-29T12:32:48;12.82;;;10.77;;
75516;SDS011;64097;52.548;13.406;2023-01-29T12:38:21;13.20;;;11.35;;
75516;SDS011;64097;52.548;13.406;2023-01-29T12:43:23;14.98;;;11.93;;
75516;SDS011;64097;52.548;13.406;2023-01-29T12:46:13;14.20;;;11.25;;
75516;SDS011;64097;52.548;13.406;2023-01-29T12:48:48;12.85;;;10.82;;
75516;SDS011;64097;52.548;13.406;2023-01-29T12:51:21;13.20;;;10.70;;
75516;SDS011;64097;52.548;13.406;2023-01-29T12:53:59;13.85;;;11.80;;
75516;SDS011;64097;52.548;13.406;2023-01-29T12:56:38;14.02;;;11.10;;
75516;SDS011;64097;52.548;13.406;2023-01-29T12:59:16;13.23;;;11.25;;
75516;SDS011;64097;52.548;13.406;2023-01-29T13:01:55;12.68;;;10.85;;
75516;SDS011;64097;52.548;13.406;2023-01-29T13:07:09;12.68;;;10.88;;
75516;SDS011;64097;52.548;13.406;2023-01-29T13:09:47;13.90;;;11.82;;
75516;SDS011;64097;52.548;13.406;2023-01-29T13:19:59;14.57;;;11.70;;
75516;SDS011;64097;52.548;13.406;2023-01-29T13:22:31;15.52;;;12.15;;
75516;SDS011;64097;52.548;13.406;2023-01-29T13:25:00;13.35;;;10.75;;
75516;SDS011;64097;52.548;13.406;2023-01-29T13:27:29;15.35;;;11.77;;
75516;SDS011;64097;52.548;13.406;2023-01-29T13:29:57;15.93;;;13.15;;
75516;SDS011;64097;52.548;13.406;2023-01-29T13:32:27;15.40;;;11.80;;
75516;SDS011;64097;52.548;13.406;2023-01-29T13:35:04;12.77;;;11.20;;
75516;SDS011;64097;52.548;13.406;2023-01-29T13:37:40;18.35;;;13.43;;
75516;SDS011;64097;52.548;13.406;2023-01-29T13:40:18;15.45;;;12.20;;
75516;SDS011;64097;52.548;13.406;2023-01-29T13:42:50;14.18;;;11.60;;
75516;SDS011;64097;52.548;13.406;2023-01-29T13:45:24;15.05;;;12.30;;
75516;SDS011;64097;52.548;13.406;2023-01-29T13:47:53;14.65;;;11.57;;
75516;SDS011;64097;52.548;13.406;2023-01-29T13:50:34;18.35;;;13.90;;
75516;SDS011;64097;52.548;13.406;2023-01-29T13:53:04;18.23;;;13.95;;
75516;SDS011;64097;52.548;13.406;2023-01-29T13:58:04;16.52;;;13.35;;
